Time;durP1;ratioP1;P1;durP2;ratioP2;P2;SDS_P1;SDS_P2;PMS_P1;PMS_P2;Temp;Humidity;BMP_temperature;BMP_pressure;BME280_temperature;BME280_humidity;BME280_pressure;Samples;Min_cycle;Max_cycle;Signal;HPM_P1;HPM_P2
2021/11/21 00:01:42;;;;;;;15.70;13.50;;;;;;;9.74;69.26;100101.05;108325;1283;23694;-74
2021/11/21 00:04:11;;;;;;;13.70;12.30;;;;;;;9.73;69.01;100098.88;108345;1283;21971;-73
2021/11/21 00:06:42;;;;;;;14.00;12.60;;;;;;;9.72;69.00;100095.33;108430;1283;23049;-73
2021/11/21 00:09:11;;;;;;;14.20;12.90;;;;;;;9.71;69.00;100091.43;108360;1277;24085;-74
2021/11/21 00:11:41;;;;;;;14.10;12.80;;;;;;;9.72;68.96;100089.71;108772;1277;22013;-74
2021/11/21 00:14:10;;;;;;;14.70;13.30;;;;;;;9.73;68.77;100082.95;108687;1278;21970;-74
2021/11/21 00:16:43;;;;;;;15.00;13.50;;;;;;;9.71;68.53;100080.45;109014;1276;23682;-74
2021/11/21 00:19:13;;;;;;;15.60;14.10;;;;;;;9.69;68.46;100079.96;108711;1278;21992;-74
2021/11/21 00:21:42;;;;;;;14.40;12.90;;;;;;;9.68;68.44;100077.66;108758;1278;21998;-74
2021/11/21 00:24:11;;;;;;;14.70;13.30;;;;;;;9.67;68.31;100075.73;108801;1278;21981;-73
2021/11/21 00:26:43;;;;;;;15.20;13.70;;;;;;;9.67;68.30;100070.83;108791;1274;23649;-74
2021/11/21 00:29:14;;;;;;;13.60;12.30;;;;;;;9.67;68.18;100068.46;108857;1278;23595;-74
2021/11/21 00:31:43;;;;;;;15.20;13.80;;;;;;;9.66;68.29;100066.25;108815;1277;21980;-73
2021/11/21 00:34:13;;;;;;;13.90;12.70;;;;;;;9.66;68.31;100063.91;108833;1278;23150;-74
2021/11/21 00:36:42;;;;;;;14.90;13.50;;;;;;;9.67;68.18;100065.22;108334;1285;21990;-75
2021/11/21 00:39:14;;;;;;;15.30;14.00;;;;;;;9.67;68.12;100065.27;108253;1285;23065;-75
2021/11/21 00:41:44;;;;;;;14.60;12.90;;;;;;;9.68;68.02;100066.94;108303;1285;22549;-75
2021/11/21 00:44:13;;;;;;;14.90;13.40;;;;;;;9.69;67.93;100067.51;108338;1283;22069;-74
2021/11/21 00:46:46;;;;;;;14.00;12.70;;;;;;;9.71;67.82;100066.40;108221;1283;23631;-75
2021/11/21 00:49:17;;;;;;;16.30;14.70;;;;;;;9.70;67.59;100069.28;108142;1289;21992;-75
2021/11/21 00:51:49;;;;;;;14.80;13.50;;;;;;;9.69;67.57;100066.79;107627;1294;24225;-74
2021/11/21 00:54:38;;;;;;;16.30;14.70;;;;;;;9.69;67.64;100066.48;107652;1287;21992;-74
2021/11/21 00:57:08;;;;;;;16.70;15.10;;;;;;;9.68;67.46;100067.60;108033;1289;22005;-74
2021/11/21 00:59:38;;;;;;;16.30;14.80;;;;;;;9.67;67.40;100066.87;107984;1289;22864;-74
2021/11/21 01:02:11;;;;;;;16.40;14.70;;;;;;;9.67;67.44;100058.94;107827;1289;22030;-74
2021/11/21 01:04:42;;;;;;;17.40;15.70;;;;;;;9.64;67.38;100059.55;107940;1289;22020;-74
2021/11/21 01:07:11;;;;;;;18.20;16.40;;;;;;;9.64;67.46;100058.20;107916;1287;21982;-74
2021/11/21 01:09:43;;;;;;;16.00;14.50;;;;;;;9.64;67.51;100059.55;108292;1280;23708;-73
2021/11/21 01:12:13;;;;;;;17.10;15.50;;;;;;;9.64;67.43;100055.30;108022;1287;22771;-74
2021/11/21 01:14:43;;;;;;;18.00;16.20;;;;;;;9.64;67.23;100052.86;108348;1282;23601;-74
2021/11/21 01:17:12;;;;;;;18.10;15.30;;;;;;;9.63;67.22;100047.40;108419;1283;21992;-74
2021/11/21 01:19:44;;;;;;;17.90;16.00;;;;;;;9.62;67.16;100046.62;108207;1282;21992;-74
2021/11/21 01:22:13;;;;;;;18.50;16.70;;;;;;;9.61;67.35;100044.77;108401;1284;22908;-75
2021/11/21 01:24:45;;;;;;;;;;;;;;;9.61;67.22;100036.59;108341;1284;21973;-75
2021/11/21 01:27:14;;;;;;;21.10;16.30;;;;;;;9.55;67.47;100031.77;108050;1288;21993;-75
2021/11/21 01:29:44;;;;;;;19.80;17.90;;;;;;;9.55;67.22;100027.77;107732;1292;22039;-75
2021/11/21 01:32:13;;;;;;;19.00;17.20;;;;;;;9.54;67.28;100025.92;107735;1292;23726;-75
2021/11/21 01:34:43;;;;;;;18.40;16.70;;;;;;;9.54;67.18;100030.24;107539;1295;23105;-74
2021/11/21 01:37:12;;;;;;;18.00;16.30;;;;;;;9.53;67.20;100020.77;107948;1288;23612;-74
2021/11/21 01:39:42;;;;;;;18.50;16.80;;;;;;;9.54;67.16;100020.45;108063;1288;23840;-74
2021/11/21 01:42:11;;;;;;;19.40;17.60;;;;;;;9.55;67.28;100018.41;108184;1287;22248;-75
2021/11/21 01:44:40;;;;;;;20.30;18.20;;;;;;;9.58;67.43;100013.16;108045;1283;23592;-73
2021/11/21 01:47:10;;;;;;;19.50;17.40;;;;;;;9.59;67.28;100011.48;108552;1278;22725;-76
2021/11/21 01:49:40;;;;;;;18.70;16.90;;;;;;;9.60;67.18;100004.69;108791;1277;23647;-74
2021/11/21 01:52:09;;;;;;;19.20;17.40;;;;;;;9.58;67.18;99999.02;108771;1278;21960;-74
2021/11/21 01:54:39;;;;;;;20.20;18.30;;;;;;;9.58;67.05;99998.90;108849;1278;21969;-75
2021/11/21 01:57:10;;;;;;;19.20;17.50;;;;;;;9.59;67.14;99995.30;108793;1278;21952;-74
2021/11/21 01:59:40;;;;;;;19.60;17.80;;;;;;;9.62;67.15;99990.17;108432;1283;23754;-74
2021/11/21 02:02:11;;;;;;;20.40;18.40;;;;;;;9.65;67.13;99990.05;108555;1282;23036;-74
2021/11/21 02:04:48;;;;;;;19.00;17.10;;;;;;;9.68;67.03;99977.92;108460;1281;23929;-74
2021/11/21 02:07:19;;;;;;;17.60;15.90;;;;;;;9.71;67.02;99977.25;108465;1281;22988;-75
2021/11/21 02:09:49;;;;;;;18.50;16.70;;;;;;;9.72;66.76;99977.81;108492;1281;23033;-74
2021/11/21 02:12:19;;;;;;;19.10;17.30;;;;;;;9.69;66.67;99973.44;108428;1282;21989;-74
2021/11/21 02:14:48;;;;;;;18.90;17.10;;;;;;;9.69;66.82;99966.09;108499;1282;23641;-74
2021/11/21 02:17:17;;;;;;;19.40;17.70;;;;;;;9.69;66.65;99966.57;108303;1283;22240;-74
2021/11/21 02:19:47;;;;;;;19.20;17.30;;;;;;;9.66;66.67;99962.87;108416;1284;23792;-75
2021/11/21 02:22:16;;;;;;;21.40;19.40;;;;;;;9.64;66.58;99962.70;108430;1283;22976;-74
2021/11/21 02:24:47;;;;;;;20.20;18.20;;;;;;;9.61;66.64;99955.46;108008;1288;23698;-74
2021/11/21 02:27:25;;;;;;;19.70;17.70;;;;;;;9.60;66.65;99958.04;108090;1288;22938;-74
2021/11/21 02:29:56;;;;;;;19.20;17.40;;;;;;;9.60;66.68;99960.15;107837;1291;22072;-75
2021/11/21 02:32:28;;;;;;;19.50;17.70;;;;;;;9.59;66.50;99955.88;107840;1291;22042;-75
2021/11/21 02:34:57;;;;;;;22.80;20.50;;;;;;;9.57;66.47;99956.46;107877;1286;22000;-75
2021/11/21 02:37:26;;;;;;;20.40;18.40;;;;;;;9.57;66.52;99951.53;108292;1287;21999;-75
2021/11/21 02:39:55;;;;;;;19.40;17.60;;;;;;;9.56;66.45;99947.98;108319;1286;22215;-75
2021/11/21 02:42:34;;;;;;;19.20;17.50;;;;;;;9.54;66.45;99944.29;108339;1281;23402;-74
2021/11/21 02:45:07;;;;;;;21.10;19.10;;;;;;;9.53;66.31;99943.43;108582;1281;21979;-74
2021/11/21 02:47:38;;;;;;;20.20;18.40;;;;;;;9.48;66.46;99937.65;108407;1280;22224;-74
2021/11/21 02:50:14;;;;;;;21.00;19.00;;;;;;;9.45;66.50;99937.23;108286;1287;21993;-75
2021/11/21 02:52:45;;;;;;;20.40;18.40;;;;;;;9.44;66.51;99938.55;108249;1286;22086;-73
2021/11/21 02:55:15;;;;;;;;;;;;;;;9.42;66.54;99935.14;108431;1281;22244;-74
2021/11/21 02:57:45;;;;;;;21.10;19.20;;;;;;;9.33;66.71;99934.15;108388;1282;22295;-74
2021/11/21 03:00:16;;;;;;;21.80;19.80;;;;;;;9.32;66.72;99933.56;108282;1284;23480;-74
2021/11/21 03:02:47;;;;;;;23.30;21.10;;;;;;;9.34;66.87;99925.11;108491;1282;21986;-75
2021/11/21 03:05:19;;;;;;;23.00;20.90;;;;;;;9.36;66.90;99923.80;108464;1281;22011;-74
2021/11/21 03:07:49;;;;;;;23.30;20.90;;;;;;;9.38;66.90;99923.38;108410;1283;21989;-73
2021/11/21 03:10:20;;;;;;;26.30;23.50;;;;;;;9.38;66.67;99921.08;108433;1282;22139;-74
2021/11/21 03:12:58;;;;;;;26.40;23.80;;;;;;;9.37;66.76;99920.66;108131;1288;24273;-74
2021/11/21 03:15:28;;;;;;;28.70;25.80;;;;;;;9.37;66.83;99919.86;107911;1288;22022;-73
2021/11/21 03:18:00;;;;;;;27.10;24.40;;;;;;;9.36;66.96;99919.20;108211;1288;22048;-74
2021/11/21 03:20:34;;;;;;;23.70;21.60;;;;;;;9.36;66.83;99920.27;108010;1288;22007;-74
2021/11/21 03:23:06;;;;;;;24.60;22.30;;;;;;;9.37;66.92;99922.96;107925;1288;22763;-74
2021/11/21 03:25:36;;;;;;;24.80;22.40;;;;;;;9.38;66.86;99919.56;107989;1288;23700;-74
2021/11/21 03:28:05;;;;;;;26.10;23.60;;;;;;;9.40;66.96;99918.80;108055;1288;23611;-75
2021/11/21 03:30:35;;;;;;;23.40;21.10;;;;;;;9.41;66.87;99917.99;108085;1283;21999;-74
2021/11/21 03:33:05;;;;;;;26.00;23.50;;;;;;;9.41;66.81;99912.66;108366;1278;22035;-74
2021/11/21 03:35:35;;;;;;;25.80;23.30;;;;;;;9.39;66.65;99912.38;108768;1278;22045;-74
2021/11/21 03:38:04;;;;;;;26.10;23.70;;;;;;;9.35;66.75;99907.77;108721;1278;22855;-74
2021/11/21 03:40:33;;;;;;;25.50;23.00;;;;;;;9.32;66.80;99909.02;108456;1282;22476;-74
2021/11/21 03:43:02;;;;;;;23.40;21.30;;;;;;;9.29;66.79;99909.91;108479;1282;23062;-74
2021/11/21 03:45:34;;;;;;;26.00;23.60;;;;;;;9.22;66.82;99907.74;108421;1282;22115;-76
2021/11/21 03:48:04;;;;;;;27.00;24.40;;;;;;;9.20;66.94;99901.41;108415;1281;23033;-74
2021/11/21 03:50:34;;;;;;;26.70;24.10;;;;;;;9.17;67.06;99900.06;108262;1287;23828;-75
2021/11/21 03:53:03;;;;;;;26.60;24.10;;;;;;;9.16;67.17;99897.20;108239;1287;23434;-75
2021/11/21 03:55:33;;;;;;;26.20;23.60;;;;;;;9.15;67.07;99895.02;108200;1287;22000;-74
2021/11/21 03:58:02;;;;;;;27.10;24.40;;;;;;;9.16;67.39;99894.69;108223;1284;22010;-74
2021/11/21 04:00:31;;;;;;;28.50;25.70;;;;;;;9.17;67.18;99891.00;107941;1289;23720;-75
2021/11/21 04:03:01;;;;;;;28.60;25.90;;;;;;;9.15;67.26;99891.67;107972;1287;21983;-75
2021/11/21 04:05:32;;;;;;;27.90;25.30;;;;;;;9.14;67.25;99891.09;107989;1289;21984;-75
2021/11/21 04:08:01;;;;;;;27.30;24.90;;;;;;;9.11;67.36;99890.36;107359;1291;23058;-75
2021/11/21 04:10:30;;;;;;;28.70;25.90;;;;;;;9.11;67.41;99891.94;107862;1289;22466;-75
2021/11/21 04:13:01;;;;;;;28.10;25.60;;;;;;;9.11;67.42;99893.20;107965;1289;22025;-74
2021/11/21 04:15:31;;;;;;;28.40;25.40;;;;;;;9.11;67.39;99890.63;107534;1294;22008;-73
2021/11/21 04:18:00;;;;;;;28.90;26.20;;;;;;;9.09;67.43;99883.55;107701;1293;23812;-73
2021/11/21 04:20:35;;;;;;;27.20;24.70;;;;;;;9.10;67.48;99883.35;107592;1294;22000;-73
2021/11/21 04:23:10;;;;;;;27.10;24.50;;;;;;;9.11;67.63;99883.35;107672;1294;22030;-73
2021/11/21 04:25:43;;;;;;;27.20;24.70;;;;;;;9.10;67.37;99875.54;107994;1282;25106;-74
2021/11/21 04:28:12;;;;;;;26.10;23.60;;;;;;;9.05;67.27;99872.80;108404;1281;22039;-74
2021/11/21 04:30:41;;;;;;;26.50;23.90;;;;;;;9.01;67.31;99868.33;108400;1282;22031;-73
2021/11/21 04:33:11;;;;;;;25.90;23.60;;;;;;;8.98;67.43;99865.31;108322;1280;21974;-73
2021/11/21 04:35:40;;;;;;;28.20;25.40;;;;;;;8.95;67.56;99863.87;108498;1281;23141;-75
2021/11/21 04:38:09;;;;;;;26.30;23.90;;;;;;;8.93;67.67;99866.13;108537;1281;23586;-75
2021/11/21 04:40:38;;;;;;;25.70;23.20;;;;;;;8.92;67.71;99861.73;108584;1280;21981;-75
2021/11/21 04:43:08;;;;;;;26.70;23.80;;;;;;;8.91;67.77;99860.28;108560;1281;23042;-75
2021/11/21 04:45:38;;;;;;;26.20;23.90;;;;;;;8.91;67.93;99857.61;108690;1280;21989;-74
2021/11/21 04:48:07;;;;;;;26.50;24.00;;;;;;;8.92;67.96;99857.52;108475;1281;24382;-74
2021/11/21 04:50:37;;;;;;;27.10;24.70;;;;;;;8.90;67.87;99853.02;108435;1281;22542;-75
2021/11/21 04:53:10;;;;;;;28.80;26.20;;;;;;;8.88;67.89;99845.67;108783;1280;22010;-78
2021/11/21 04:55:40;;;;;;;26.80;24.00;;;;;;;8.85;67.86;99835.48;108702;1279;23688;-74
2021/11/21 04:58:10;;;;;;;28.10;25.60;;;;;;;8.84;67.89;99832.48;108721;1275;22356;-73
2021/11/21 05:00:40;;;;;;;27.60;25.10;;;;;;;8.84;68.07;99824.83;108828;1278;23046;-74
2021/11/21 05:03:09;;;;;;;29.30;26.40;;;;;;;8.84;68.04;99823.09;108633;1278;23075;-74
2021/11/21 05:05:39;;;;;;;28.70;26.00;;;;;;;8.82;67.99;99812.77;108658;1278;23708;-76
2021/11/21 05:08:17;;;;;;;27.40;24.90;;;;;;;8.80;67.93;99809.55;108346;1283;24466;-74
2021/11/21 05:10:46;;;;;;;26.30;23.90;;;;;;;8.80;68.07;99810.93;108282;1283;23077;-75
2021/11/21 05:13:18;;;;;;;26.30;23.90;;;;;;;8.78;67.88;99815.15;108194;1285;22048;-73
2021/11/21 05:15:48;;;;;;;27.90;25.30;;;;;;;8.76;67.99;99817.54;108379;1284;21999;-75
2021/11/21 05:18:17;;;;;;;27.70;25.20;;;;;;;8.79;68.10;99815.84;108413;1283;23789;-75
2021/11/21 05:20:46;;;;;;;27.60;25.10;;;;;;;8.80;67.96;99810.08;107771;1290;21996;-73
2021/11/21 05:23:18;;;;;;;29.30;26.60;;;;;;;8.79;67.95;99811.56;107901;1291;23044;-74
2021/11/21 05:25:48;;;;;;;27.30;24.90;;;;;;;8.78;68.08;99807.45;108033;1289;22029;-75
2021/11/21 05:28:20;;;;;;;29.00;26.40;;;;;;;8.77;67.98;99807.62;108019;1291;22046;-74
2021/11/21 05:30:51;;;;;;;27.60;25.00;;;;;;;8.78;68.13;99800.35;107975;1290;23068;-74
2021/11/21 05:33:20;;;;;;;29.60;26.90;;;;;;;8.79;68.08;99797.55;108309;1283;22278;-74
2021/11/21 05:35:49;;;;;;;31.90;28.90;;;;;;;8.81;68.19;99793.25;108437;1283;22292;-74
2021/11/21 05:38:19;;;;;;;32.10;28.90;;;;;;;8.81;67.93;99790.06;108410;1283;22001;-74
2021/11/21 05:40:49;;;;;;;29.60;26.90;;;;;;;8.80;68.06;99787.75;108402;1283;22016;-75
2021/11/21 05:43:23;;;;;;;29.70;27.10;;;;;;;8.77;67.84;99781.38;108309;1282;22034;-74
2021/11/21 05:46:02;;;;;;;29.30;26.70;;;;;;;8.74;67.86;99784.05;108600;1278;23046;-73
2021/11/21 05:48:46;;;;;;;27.70;25.10;;;;;;;8.73;67.99;99788.30;108418;1284;22219;-76
2021/11/21 05:51:18;;;;;;;27.90;25.40;;;;;;;8.72;67.96;99785.67;108279;1283;22230;-75
2021/11/21 05:53:52;;;;;;;;;;;;;;;8.73;68.18;99781.89;108412;1285;21973;-74
2021/11/21 05:56:24;;;;;;;25.10;22.60;;;;;;;8.65;68.08;99779.39;108454;1284;21988;-75
2021/11/21 05:58:53;;;;;;;27.90;25.20;;;;;;;8.63;68.02;99783.14;108442;1284;22005;-75
2021/11/21 06:01:23;;;;;;;28.20;25.50;;;;;;;8.64;68.11;99778.78;108076;1289;21996;-75
2021/11/21 06:03:54;;;;;;;27.30;24.60;;;;;;;8.64;68.02;99777.80;108235;1289;23045;-74
2021/11/21 06:06:26;;;;;;;27.40;24.70;;;;;;;8.63;68.08;99781.60;108276;1288;23615;-74
2021/11/21 06:08:56;;;;;;;25.80;23.40;;;;;;;8.63;67.97;99782.97;108061;1288;22753;-75
2021/11/21 06:11:25;;;;;;;27.80;25.10;;;;;;;8.63;67.80;99782.11;108155;1288;23042;-74
2021/11/21 06:13:57;;;;;;;;;;;;;;;8.64;67.99;99782.21;108420;1282;21968;-75
2021/11/21 06:16:26;;;;;;;24.50;22.20;;;;;;;8.58;67.93;99778.38;108479;1281;22312;-75
2021/11/21 06:18:55;;;;;;;25.60;23.10;;;;;;;8.56;67.95;99776.70;108524;1278;21984;-73
2021/11/21 06:21:24;;;;;;;26.10;23.40;;;;;;;8.56;68.04;99777.55;108584;1282;23076;-74
2021/11/21 06:23:53;;;;;;;23.00;20.70;;;;;;;8.58;67.99;99771.97;108450;1282;22045;-74
2021/11/21 06:26:23;;;;;;;25.30;22.80;;;;;;;8.60;67.87;99773.83;108481;1283;23666;-75
2021/11/21 06:28:53;;;;;;;23.80;21.50;;;;;;;8.60;67.80;99770.80;108497;1282;21985;-74
2021/11/21 06:31:23;;;;;;;21.90;19.90;;;;;;;8.58;67.64;99772.69;108361;1284;22406;-74
2021/11/21 06:33:55;;;;;;;25.40;22.80;;;;;;;8.55;67.60;99775.79;108390;1283;23056;-76
2021/11/21 06:36:25;;;;;;;;;;;;;;;8.52;67.67;99775.07;108330;1284;23131;-74
2021/11/21 06:38:54;;;;;;;22.60;20.40;;;;;;;8.42;67.95;99775.05;108326;1281;23007;-75
2021/11/21 06:41:23;;;;;;;22.10;20.00;;;;;;;8.42;67.97;99772.59;108616;1280;227094;-74
2021/11/21 06:43:53;;;;;;;24.00;21.60;;;;;;;8.45;68.00;99772.12;108611;1281;24339;-75
2021/11/21 06:46:22;;;;;;;23.30;21.10;;;;;;;8.48;68.04;99768.46;108666;1281;23692;-75
2021/11/21 06:48:52;;;;;;;23.90;21.50;;;;;;;8.52;68.02;99770.98;108645;1278;21996;-75
2021/11/21 06:51:21;;;;;;;26.90;24.40;;;;;;;8.54;67.93;99764.30;108918;1277;22043;-75
2021/11/21 06:53:51;;;;;;;26.10;23.60;;;;;;;8.55;67.83;99763.08;108851;1278;23029;-74
2021/11/21 06:56:21;;;;;;;26.70;24.30;;;;;;;8.56;67.78;99756.38;108610;1281;22823;-75
2021/11/21 06:58:51;;;;;;;27.90;25.30;;;;;;;8.56;67.76;99757.59;108502;1282;22207;-74
2021/11/21 07:01:21;;;;;;;28.80;26.10;;;;;;;8.56;67.74;99750.54;108580;1281;22743;-80
2021/11/21 07:03:53;;;;;;;27.80;25.00;;;;;;;8.55;67.62;99747.59;108421;1281;22839;-75
2021/11/21 07:06:46;;;;;;;30.50;27.30;;;;;;;8.54;67.64;99745.21;108152;1287;23743;-76
2021/11/21 07:09:32;;;;;;;32.30;29.00;;;;;;;8.52;67.56;99741.41;107596;1292;23643;-78
2021/11/21 07:12:01;;;;;;;36.20;32.50;;;;;;;8.51;67.74;99742.19;107716;1292;21998;-75
2021/11/21 07:14:36;;;;;;;34.30;30.80;;;;;;;8.51;67.77;99739.05;107808;1289;22861;-75
2021/11/21 07:17:05;;;;;;;35.30;31.90;;;;;;;8.53;67.61;99735.27;108121;1288;21992;-76
2021/11/21 07:19:36;;;;;;;37.30;33.70;;;;;;;8.56;67.76;99729.84;107978;1288;22017;-75
2021/11/21 07:22:08;;;;;;;34.40;29.90;;;;;;;8.54;67.44;99727.85;108033;1291;24165;-75
2021/11/21 07:24:38;;;;;;;31.40;28.50;;;;;;;8.51;67.45;99727.55;107951;1288;21989;-75
2021/11/21 07:27:07;;;;;;;36.50;32.70;;;;;;;8.49;67.55;99727.27;108185;1281;22470;-74
2021/11/21 07:29:36;;;;;;;45.70;40.90;;;;;;;8.48;67.55;99725.98;108596;1281;24292;-75
2021/11/21 07:32:10;;;;;;;35.60;32.10;;;;;;;8.52;67.70;99722.41;108507;1281;23032;-78
2021/11/21 07:34:44;;;;;;;31.20;28.00;;;;;;;8.55;67.62;99724.52;108477;1281;22970;-77
2021/11/21 07:37:19;;;;;;;28.50;25.90;;;;;;;8.54;67.48;99721.70;108495;1281;22478;-75
2021/11/21 07:39:48;;;;;;;29.30;26.50;;;;;;;8.55;67.58;99720.98;108504;1276;22732;-75
2021/11/21 07:42:18;;;;;;;34.50;31.10;;;;;;;8.58;67.69;99719.77;108924;1275;23669;-75
2021/11/21 07:44:48;;;;;;;28.80;26.10;;;;;;;8.61;67.62;99717.15;108845;1275;22777;-75
2021/11/21 07:47:18;;;;;;;29.80;26.90;;;;;;;8.63;67.53;99719.38;108854;1276;23623;-74
2021/11/21 07:49:51;;;;;;;31.60;28.50;;;;;;;8.66;67.49;99715.92;108456;1283;23125;-75
2021/11/21 07:52:20;;;;;;;31.60;28.60;;;;;;;8.71;67.68;99715.34;108090;1287;22060;-76
2021/11/21 07:54:52;;;;;;;32.60;29.20;;;;;;;8.78;67.74;99718.82;108014;1289;23753;-75
2021/11/21 07:57:22;;;;;;;31.40;28.20;;;;;;;8.82;67.71;99721.30;108016;1288;22023;-75
2021/11/21 07:59:51;;;;;;;32.60;29.40;;;;;;;8.85;67.48;99729.73;108064;1288;22030;-75
2021/11/21 08:02:23;;;;;;;32.90;29.70;;;;;;;8.87;67.28;99732.23;108092;1289;22777;-75
2021/11/21 08:04:55;;;;;;;31.80;28.70;;;;;;;8.85;67.03;99735.23;107990;1289;23770;-75
2021/11/21 08:07:27;;;;;;;33.20;29.80;;;;;;;8.83;67.16;99730.13;108026;1283;22073;-75
2021/11/21 08:09:58;;;;;;;33.50;30.00;;;;;;;8.84;67.08;99732.30;108373;1281;22004;-75
2021/11/21 08:12:27;;;;;;;33.40;30.20;;;;;;;8.84;67.12;99730.82;108558;1281;21992;-75
2021/11/21 08:14:57;;;;;;;32.10;28.80;;;;;;;8.84;67.09;99733.02;108598;1281;21996;-75
2021/11/21 08:17:26;;;;;;;31.00;26.90;;;;;;;8.86;67.31;99732.49;108560;1281;21979;-75
2021/11/21 08:19:55;;;;;;;32.60;29.40;;;;;;;8.87;67.22;99733.73;108484;1281;21981;-75
2021/11/21 08:22:24;;;;;;;32.90;29.60;;;;;;;8.86;67.14;99736.84;108558;1278;22041;-75
2021/11/21 08:24:53;;;;;;;33.50;30.20;;;;;;;8.86;67.11;99733.18;108587;1281;24064;-75
2021/11/21 08:27:22;;;;;;;31.10;27.70;;;;;;;8.84;66.91;99736.41;108545;1277;23060;-75
2021/11/21 08:29:52;;;;;;;38.80;34.90;;;;;;;8.82;67.08;99733.59;109112;1275;21976;-75
2021/11/21 08:32:22;;;;;;;47.80;42.30;;;;;;;8.82;67.16;99731.49;108759;1276;23077;-75
2021/11/21 08:34:51;;;;;;;70.00;53.60;;;;;;;8.85;67.32;99731.73;108834;1276;22324;-74
2021/11/21 08:37:20;;;;;;;47.20;40.90;;;;;;;8.86;67.22;99731.08;108901;1275;21978;-75
2021/11/21 08:39:49;;;;;;;40.50;36.20;;;;;;;8.86;67.21;99729.70;108825;1276;23074;-75
2021/11/21 08:42:18;;;;;;;36.10;32.50;;;;;;;8.87;67.41;99730.61;108618;1278;22087;-75
2021/11/21 08:44:47;;;;;;;33.30;29.90;;;;;;;8.88;67.37;99733.79;108452;1284;22296;-75
2021/11/21 08:47:16;;;;;;;35.90;32.10;;;;;;;8.88;67.18;99732.58;108451;1283;22024;-75
2021/11/21 08:49:45;;;;;;;32.20;29.00;;;;;;;8.87;67.03;99728.83;108463;1283;21982;-75
2021/11/21 08:52:14;;;;;;;40.40;36.10;;;;;;;8.84;67.10;99731.87;108472;1283;21991;-76
2021/11/21 08:54:43;;;;;;;34.60;31.10;;;;;;;8.83;67.17;99729.50;108397;1282;21987;-76
2021/11/21 08:57:14;;;;;;;36.70;32.70;;;;;;;8.83;67.25;99735.23;108443;1282;22042;-75
2021/11/21 08:59:43;;;;;;;35.50;31.80;;;;;;;8.82;67.16;99739.88;108546;1282;21993;-75
2021/11/21 09:02:12;;;;;;;35.80;30.90;;;;;;;8.82;67.09;99740.12;108473;1278;21980;-75
2021/11/21 09:04:41;;;;;;;35.40;31.10;;;;;;;8.82;67.19;99743.23;108940;1275;22067;-75
2021/11/21 09:07:10;;;;;;;39.50;35.20;;;;;;;8.85;67.31;99743.77;108849;1276;21966;-75
2021/11/21 09:09:39;;;;;;;36.80;32.90;;;;;;;8.86;67.29;99745.77;108863;1276;23574;-76
2021/11/21 09:12:09;;;;;;;38.20;34.50;;;;;;;8.88;67.26;99743.64;108883;1277;23386;-76
2021/11/21 09:14:38;;;;;;;42.80;36.20;;;;;;;8.92;67.30;99743.02;108895;1276;23253;-75
2021/11/21 09:17:07;;;;;;;39.60;34.90;;;;;;;8.96;67.40;99739.09;108869;1278;23026;-75
2021/11/21 09:19:36;;;;;;;36.70;32.90;;;;;;;8.95;67.13;99738.59;108913;1278;22746;-75
2021/11/21 09:22:08;;;;;;;38.00;33.80;;;;;;;8.94;67.22;99737.75;108856;1277;21974;-74
2021/11/21 09:24:40;;;;;;;35.40;31.80;;;;;;;8.93;67.12;99735.35;108716;1278;21985;-75
2021/11/21 09:27:14;;;;;;;35.10;31.30;;;;;;;8.91;67.02;99736.95;108851;1277;22835;-75
2021/11/21 09:29:44;;;;;;;33.80;30.40;;;;;;;8.90;67.05;99732.50;108769;1278;22011;-75
2021/11/21 09:32:13;;;;;;;36.90;33.20;;;;;;;8.90;67.13;99731.61;108986;1277;22001;-75
2021/11/21 09:34:44;;;;;;;36.90;33.00;;;;;;;8.94;67.28;99734.36;108949;1276;23708;-75
2021/11/21 09:37:13;;;;;;;35.80;32.00;;;;;;;8.95;67.13;99730.23;108899;1278;21987;-75
2021/11/21 09:39:45;;;;;;;41.20;36.60;;;;;;;8.91;66.97;99729.40;108420;1283;21999;-76
2021/11/21 09:42:15;;;;;;;39.50;35.30;;;;;;;8.88;67.00;99731.75;108537;1283;22118;-76
2021/11/21 09:44:44;;;;;;;37.90;33.80;;;;;;;8.89;67.25;99731.25;108458;1283;23037;-75
2021/11/21 09:47:13;;;;;;;37.20;33.20;;;;;;;8.92;67.36;99728.94;108468;1283;22093;-75
2021/11/21 09:49:42;;;;;;;35.80;32.00;;;;;;;8.97;67.31;99727.76;108446;1283;22757;-76
2021/11/21 09:52:17;;;;;;;34.50;30.90;;;;;;;8.99;67.27;99726.13;108469;1283;22222;-75
2021/11/21 09:54:46;;;;;;;35.80;32.00;;;;;;;9.00;67.11;99727.58;108426;1283;21998;-75
2021/11/21 09:57:15;;;;;;;36.80;33.10;;;;;;;8.97;66.97;99723.38;108585;1277;21990;-76
2021/11/21 09:59:59;;;;;;;37.20;33.30;;;;;;;8.93;67.11;99724.94;109117;1275;21964;-76
2021/11/21 10:02:49;;;;;;;42.50;37.90;;;;;;;8.95;67.21;99721.28;108788;1275;23090;-75
2021/11/21 10:05:25;;;;;;;38.90;34.90;;;;;;;8.98;67.22;99723.32;108928;1277;21979;-75
2021/11/21 10:08:02;;;;;;;36.90;33.20;;;;;;;9.00;67.21;99720.04;108807;1275;23078;-75
2021/11/21 10:10:43;;;;;;;34.90;31.60;;;;;;;9.02;67.06;99717.35;108953;1277;23062;-76
2021/11/21 10:13:36;;;;;;;34.20;30.70;;;;;;;9.02;67.00;99715.58;108853;1275;22455;-76
2021/11/21 10:16:17;;;;;;;36.90;33.20;;;;;;;9.00;67.11;99715.98;108919;1278;22244;-75
2021/11/21 10:18:56;;;;;;;35.30;31.50;;;;;;;9.01;67.19;99714.27;109150;1276;23749;-76
2021/11/21 10:21:35;;;;;;;36.80;32.80;;;;;;;9.05;67.32;99714.66;108895;1277;23024;-75
2021/11/21 10:24:28;;;;;;;37.80;33.70;;;;;;;9.05;66.95;99709.45;108942;1276;22064;-76
2021/11/21 10:27:11;;;;;;;34.60;31.00;;;;;;;9.02;66.90;99707.48;108903;1277;23602;-76
2021/11/21 10:29:43;;;;;;;36.10;32.60;;;;;;;8.99;66.94;99708.91;108825;1277;23688;-76
2021/11/21 10:32:30;;;;;;;39.00;34.80;;;;;;;8.96;67.02;99713.44;108877;1278;22038;-75
2021/11/21 10:35:05;;;;;;;38.90;34.70;;;;;;;8.98;67.25;99713.88;108733;1277;22981;-75
2021/11/21 10:37:41;;;;;;;36.60;33.00;;;;;;;8.99;67.21;99714.19;108722;1278;22035;-75
2021/11/21 10:40:14;;;;;;;34.20;30.90;;;;;;;8.97;67.08;99707.17;108799;1278;21984;-75
2021/11/21 10:42:48;;;;;;;34.70;31.10;;;;;;;8.96;67.14;99707.13;108571;1278;21979;-76
2021/11/21 10:45:27;;;;;;;36.90;32.80;;;;;;;8.94;67.01;99701.45;108698;1278;23599;-76
2021/11/21 10:48:00;;;;;;;38.90;32.30;;;;;;;8.96;67.29;99700.96;108759;1278;21998;-76
2021/11/21 10:50:38;;;;;;;36.40;32.60;;;;;;;8.98;67.14;99693.05;108800;1278;21991;-76
2021/11/21 10:53:09;;;;;;;32.40;29.00;;;;;;;8.98;67.17;99696.04;108941;1278;21996;-76
2021/11/21 10:55:41;;;;;;;33.60;30.10;;;;;;;8.97;67.07;99695.83;108815;1278;22004;-76
2021/11/21 10:58:15;;;;;;;32.30;29.00;;;;;;;8.97;67.17;99701.02;108845;1278;23071;-76
2021/11/21 11:00:59;;;;;;;31.30;28.20;;;;;;;8.98;67.07;99700.35;108465;1278;22010;-76
2021/11/21 11:03:28;;;;;;;34.40;30.80;;;;;;;9.00;67.21;99700.55;108663;1278;23516;-76
2021/11/21 11:05:57;;;;;;;36.30;32.20;;;;;;;9.03;67.28;99696.90;109070;1278;21976;-76
2021/11/21 11:08:34;;;;;;;42.70;38.20;;;;;;;9.08;67.23;99696.61;109120;1278;22050;-76
2021/11/21 11:11:05;;;;;;;44.70;40.00;;;;;;;9.11;67.18;99693.10;108782;1278;22280;-76
2021/11/21 11:13:34;;;;;;;40.20;36.20;;;;;;;9.11;66.98;99686.94;108783;1278;23589;-76
2021/11/21 11:16:04;;;;;;;37.70;33.90;;;;;;;9.11;67.00;99686.61;108847;1278;21975;-76
2021/11/21 11:18:36;;;;;;;38.10;34.00;;;;;;;9.11;66.87;99681.15;108788;1278;23673;-76
2021/11/21 11:21:09;;;;;;;37.60;33.70;;;;;;;9.13;67.11;99679.20;108763;1278;22115;-76
2021/11/21 11:23:40;;;;;;;40.50;36.10;;;;;;;9.14;66.95;99676.42;108556;1279;22149;-76
2021/11/21 11:26:10;;;;;;;38.70;34.40;;;;;;;9.14;67.02;99676.09;108847;1278;21975;-75
2021/11/21 11:28:48;;;;;;;36.40;32.30;;;;;;;9.18;67.12;99672.99;108745;1278;21981;-77
2021/11/21 11:31:27;;;;;;;35.90;31.90;;;;;;;9.23;67.07;99679.45;108736;1278;22256;-75
2021/11/21 11:33:59;;;;;;;34.70;31.00;;;;;;;9.24;66.94;99679.34;108841;1278;22007;-76
2021/11/21 11:36:31;;;;;;;;;;;;;;;9.28;67.03;99674.66;108289;1283;21989;-76